Time;durP1;ratioP1;P1;durP2;ratioP2;P2;SDS_P1;SDS_P2;PMS_P1;PMS_P2;Temp;Humidity;BMP_temperature;BMP_pressure;BME280_temperature;BME280_humidity;BME280_pressure;Samples;Min_cycle;Max_cycle;Signal;HPM_P1;HPM_P2
2022/11/27 00:00:37;;;;;;;40.37;19.70;;;;;;;-141.97;67.37;47638.25;4978040;28;20922;-89
2022/11/27 00:03:03;;;;;;;38.73;19.90;;;;;;;-141.97;67.60;47661.31;4994998;28;20233;-88
2022/11/27 00:05:28;;;;;;;40.33;19.93;;;;;;;-141.97;67.23;47765.09;4995251;28;20649;-88
2022/11/27 00:07:54;;;;;;;39.67;19.17;;;;;;;-141.97;66.88;47734.34;4977787;28;20199;-88
2022/11/27 00:10:19;;;;;;;34.73;18.03;;;;;;;-141.97;66.64;47620.94;4998556;28;20183;-87
2022/11/27 00:12:45;;;;;;;40.40;18.57;;;;;;;-141.97;66.82;47694.00;4991357;28;20172;-88
2022/11/27 00:15:10;;;;;;;42.93;21.00;;;;;;;-141.97;66.78;47718.97;4978669;28;20698;-89
2022/11/27 00:17:36;;;;;;;48.97;23.50;;;;;;;-141.97;66.46;47684.38;4977868;28;20237;-89
2022/11/27 00:20:01;;;;;;;45.13;21.60;;;;;;;-141.97;66.53;47715.13;4994734;28;20174;-88
2022/11/27 00:22:26;;;;;;;43.23;21.00;;;;;;;-141.97;66.39;47705.53;4997562;28;20178;-90
2022/11/27 00:24:52;;;;;;;44.10;21.40;;;;;;;-141.97;66.32;47640.16;5001973;28;20164;-87
2022/11/27 00:27:18;;;;;;;43.07;20.80;;;;;;;-141.97;65.44;47734.34;4983667;28;20175;-88
2022/11/27 00:29:43;;;;;;;42.70;20.97;;;;;;;-141.97;66.05;47649.78;4999272;28;20178;-89
2022/11/27 00:32:08;;;;;;;45.83;22.10;;;;;;;-141.97;66.03;47772.78;4995317;28;20675;-88
2022/11/27 00:34:34;;;;;;;53.27;24.30;;;;;;;-141.97;65.94;47665.16;4995824;28;20714;-88
2022/11/27 00:37:00;;;;;;;53.87;25.10;;;;;;;-141.97;66.08;47749.72;4979880;28;20183;-88
2022/11/27 00:39:26;;;;;;;47.70;22.40;;;;;;;-141.97;66.56;47584.44;5004426;28;20167;-90
2022/11/27 00:41:52;;;;;;;42.47;21.10;;;;;;;-141.97;67.57;47672.84;5000206;28;20172;-88
2022/11/27 00:44:17;;;;;;;46.30;21.90;;;;;;;-141.97;67.70;47792.03;4995263;28;20472;-88
2022/11/27 00:46:43;;;;;;;45.80;22.33;;;;;;;-141.97;68.34;47695.91;4996130;28;20193;-89
2022/11/27 00:49:12;;;;;;;47.13;22.93;;;;;;;-141.97;67.90;47742.03;5018593;28;20151;-88
2022/11/27 00:51:37;;;;;;;49.37;23.63;;;;;;;-141.97;67.10;47765.09;5012796;28;20199;-88
2022/11/27 00:54:04;;;;;;;46.07;21.87;;;;;;;-141.97;68.58;47722.81;4999857;28;20498;-88
2022/11/27 00:56:32;;;;;;;53.93;24.33;;;;;;;-141.97;71.64;47657.47;4977115;28;20194;-89
2022/11/27 00:58:58;;;;;;;48.83;22.83;;;;;;;-141.97;71.54;47724.75;4994740;28;20402;-88
2022/11/27 01:01:26;;;;;;;48.20;22.30;;;;;;;-141.97;70.92;47682.47;4994777;28;20851;-88
2022/11/27 01:03:52;;;;;;;48.47;23.40;;;;;;;-141.97;69.99;47718.97;4995245;28;20596;-88
2022/11/27 01:06:18;;;;;;;48.10;24.17;;;;;;;-141.97;70.20;47644.00;4996850;28;20409;-88
2022/11/27 01:08:44;;;;;;;49.50;22.67;;;;;;;-141.97;69.33;47638.25;4993849;28;20167;-88
2022/11/27 01:11:18;;;;;;;49.63;23.37;;;;;;;-141.97;68.77;47665.16;4994418;28;20570;-87
2022/11/27 01:13:44;;;;;;;45.30;22.83;;;;;;;-141.97;68.33;47636.31;4997574;28;20167;-88
2022/11/27 01:16:18;;;;;;;46.53;23.47;;;;;;;-141.97;67.74;47786.25;4997615;28;20416;-87
2022/11/27 01:18:46;;;;;;;45.50;22.53;;;;;;;-141.97;66.96;47669.00;4993756;28;20167;-87
2022/11/27 01:21:13;;;;;;;48.97;22.90;;;;;;;-141.97;66.28;47738.19;4993914;28;20435;-88
2022/11/27 01:23:39;;;;;;;45.07;22.33;;;;;;;-141.97;66.67;47768.94;4992394;28;20418;-87
2022/11/27 01:26:06;;;;;;;46.07;21.20;;;;;;;-141.97;67.11;47753.56;4975394;28;20406;-89
2022/11/27 01:28:33;;;;;;;43.13;20.87;;;;;;;-141.97;68.46;47695.91;4993505;28;20629;-87
2022/11/27 01:31:06;;;;;;;43.03;21.17;;;;;;;-141.97;68.23;47670.91;4993606;28;20454;-88
2022/11/27 01:33:31;;;;;;;45.63;22.13;;;;;;;-141.97;68.23;47680.53;5000590;28;20485;-85
2022/11/27 01:36:01;;;;;;;46.10;22.70;;;;;;;-141.97;67.42;47667.06;4989693;28;20411;-85
2022/11/27 01:38:28;;;;;;;45.37;21.37;;;;;;;-141.97;67.96;47670.91;5007856;28;20167;-85
2022/11/27 01:41:02;;;;;;;46.63;21.80;;;;;;;-141.97;68.77;47682.47;4990317;28;20399;-87
2022/11/27 01:43:37;;;;;;;48.50;23.13;;;;;;;-141.97;68.97;47667.06;5003388;28;20406;-87
2022/11/27 01:46:02;;;;;;;50.60;23.73;;;;;;;-141.97;69.18;47617.09;4981196;28;20872;-86
2022/11/27 01:48:28;;;;;;;47.33;23.33;;;;;;;-141.97;68.79;47669.00;4979210;28;20446;-89
2022/11/27 01:50:53;;;;;;;50.87;24.00;;;;;;;-141.97;68.36;47765.09;4993334;28;20194;-88
2022/11/27 01:53:19;;;;;;;49.13;24.77;;;;;;;-141.97;68.94;47692.06;4993047;28;20242;-88
2022/11/27 01:55:51;;;;;;;49.27;23.20;;;;;;;-141.97;68.95;47684.38;4993579;28;20179;-88
2022/11/27 01:58:25;;;;;;;52.20;24.47;;;;;;;-141.97;70.05;47805.47;4993174;28;20227;-89
2022/11/27 02:00:51;;;;;;;53.30;23.90;;;;;;;-141.97;69.79;47705.53;4994507;28;20433;-89
2022/11/27 02:03:16;;;;;;;51.73;25.43;;;;;;;-141.97;70.38;47657.47;5004391;28;20523;-87
2022/11/27 02:05:42;;;;;;;53.80;25.30;;;;;;;-141.97;69.72;47799.72;5004948;28;20702;-89
2022/11/27 02:08:14;;;;;;;49.77;25.03;;;;;;;-141.97;70.03;47684.38;4978498;28;20559;-88
2022/11/27 02:10:51;;;;;;;62.67;28.30;;;;;;;-141.97;69.34;47665.16;4995509;28;20194;-88
2022/11/27 02:13:45;;;;;;;60.60;27.50;;;;;;;-141.97;69.89;47688.22;4976124;28;20410;-89
2022/11/27 02:16:19;;;;;;;54.07;26.33;;;;;;;-141.97;69.41;47686.31;4993521;28;20418;-89
2022/11/27 02:19:06;;;;;;;52.80;25.37;;;;;;;-141.97;69.03;47655.53;4993548;28;20840;-89
2022/11/27 02:21:43;;;;;;;52.53;25.03;;;;;;;-141.97;68.63;47720.91;4993761;28;20433;-89
2022/11/27 02:24:30;;;;;;;54.97;26.70;;;;;;;-141.97;68.71;47747.81;4993215;28;20414;-87
2022/11/27 02:27:18;;;;;;;52.77;25.70;;;;;;;-141.97;68.39;47684.38;4975742;28;20422;-89
2022/11/27 02:29:47;;;;;;;53.17;24.97;;;;;;;-141.97;67.67;47659.38;4975569;28;21241;-90
2022/11/27 02:32:33;;;;;;;50.07;24.60;;;;;;;-141.97;67.76;47694.00;4993179;28;20569;-89
2022/11/27 02:35:01;;;;;;;52.90;23.83;;;;;;;-141.97;67.33;47734.34;5002024;28;20406;-88
2022/11/27 02:37:45;;;;;;;52.50;25.63;;;;;;;-141.97;67.33;47722.81;5001075;28;20413;-89
2022/11/27 02:40:15;;;;;;;49.40;23.23;;;;;;;-141.97;67.59;47657.47;4979269;28;20418;-89
2022/11/27 02:42:48;;;;;;;49.93;23.43;;;;;;;-141.97;67.11;47657.47;4996604;28;20405;-88
2022/11/27 02:45:21;;;;;;;49.13;23.77;;;;;;;-141.97;66.02;47682.47;4996341;28;20409;-89
2022/11/27 02:47:49;;;;;;;105.60;47.00;;;;;;;-141.97;66.35;47657.47;4979176;28;20418;-89
2022/11/27 02:50:20;;;;;;;85.17;38.50;;;;;;;-141.97;66.03;47759.34;4996073;28;20977;-88
2022/11/27 02:52:48;;;;;;;52.30;27.00;;;;;;;-141.97;65.93;47688.22;4996513;28;20497;-89
2022/11/27 02:55:19;;;;;;;52.40;24.03;;;;;;;-141.97;66.09;47699.75;4996985;28;20406;-89
2022/11/27 02:57:45;;;;;;;42.47;22.10;;;;;;;-141.97;66.15;47688.22;4978609;28;20453;-89
2022/11/27 03:00:12;;;;;;;42.80;21.10;;;;;;;-141.97;66.04;47711.28;4978673;28;20445;-89
2022/11/27 03:02:45;;;;;;;41.90;21.13;;;;;;;-141.97;65.58;47707.44;4995583;28;20462;-89
2022/11/27 03:05:16;;;;;;;43.17;21.17;;;;;;;-141.97;65.87;47765.09;4978261;28;20950;-89
2022/11/27 03:07:55;;;;;;;49.07;22.87;;;;;;;-141.97;65.87;47697.84;4995515;28;20776;-89
2022/11/27 03:10:31;;;;;;;48.33;23.33;;;;;;;-141.97;65.57;47686.31;4995445;28;20577;-89
2022/11/27 03:12:58;;;;;;;47.13;23.70;;;;;;;-141.97;65.99;47730.50;4978360;28;20407;-89
2022/11/27 03:15:29;;;;;;;47.83;24.03;;;;;;;-141.97;66.25;47678.63;5020047;28;20399;-90
2022/11/27 03:18:14;;;;;;;49.93;24.77;;;;;;;-141.97;66.61;47676.69;5019609;28;20487;-90
2022/11/27 03:20:42;;;;;;;46.67;23.60;;;;;;;-141.97;66.77;47701.69;5000825;28;20783;-88
2022/11/27 03:23:08;;;;;;;58.90;26.93;;;;;;;-141.97;67.06;47615.19;4978521;28;20432;-88
2022/11/27 03:25:33;;;;;;;47.60;23.53;;;;;;;-141.97;67.24;47672.84;4995904;28;20828;-89
2022/11/27 03:28:05;;;;;;;46.60;22.40;;;;;;;-141.97;67.17;47688.22;4995566;28;20187;-89
2022/11/27 03:30:30;;;;;;;48.53;22.30;;;;;;;-141.97;67.31;47761.25;4977790;28;20882;-88
2022/11/27 03:32:56;;;;;;;45.70;23.37;;;;;;;-141.97;67.54;47694.00;4999091;28;20390;-90
2022/11/27 03:35:24;;;;;;;49.60;24.53;;;;;;;-141.97;67.35;47678.63;5010468;28;20222;-88
2022/11/27 03:37:50;;;;;;;53.00;25.87;;;;;;;-141.97;67.77;47720.91;4989936;28;20175;-88
2022/11/27 03:40:17;;;;;;;56.50;26.13;;;;;;;-141.97;67.38;47669.00;4977627;28;20967;-89
2022/11/27 03:43:01;;;;;;;59.37;26.67;;;;;;;-141.97;68.03;47692.06;4977775;28;20413;-89
2022/11/27 03:45:36;;;;;;;50.43;21.73;;;;;;;-141.97;69.34;47703.59;4994780;28;20406;-88
2022/11/27 03:48:29;;;;;;;46.40;21.90;;;;;;;-141.97;69.65;47718.97;4994340;28;20407;-88
2022/11/27 03:51:01;;;;;;;47.47;21.40;;;;;;;-141.97;70.54;47665.16;4977077;28;20451;-88
2022/11/27 03:53:58;;;;;;;47.20;22.10;;;;;;;-141.97;70.56;47663.22;4977196;28;20438;-89
2022/11/27 03:56:46;;;;;;;43.43;20.97;;;;;;;-141.97;71.29;47647.84;4977583;28;20475;-89
2022/11/27 03:59:21;;;;;;;47.27;21.73;;;;;;;-141.97;71.46;47653.63;4995507;28;20416;-89
2022/11/27 04:01:47;;;;;;;46.67;20.30;;;;;;;-141.97;71.75;47630.56;4977594;28;20475;-88
2022/11/27 04:04:13;;;;;;;48.40;21.40;;;;;;;-141.97;72.33;47674.78;4994942;28;20465;-87
2022/11/27 04:06:38;;;;;;;43.63;21.37;;;;;;;-141.97;71.86;47615.19;5001442;28;20170;-88
2022/11/27 04:09:04;;;;;;;40.97;19.83;;;;;;;-141.97;71.31;47657.47;5014301;28;20419;-89
2022/11/27 04:11:30;;;;;;;41.73;19.67;;;;;;;-141.97;71.18;47538.28;5013924;28;20196;-88
2022/11/27 04:13:55;;;;;;;38.73;18.20;;;;;;;-141.97;71.21;47674.78;5014444;28;20241;-89
2022/11/27 04:16:20;;;;;;;41.50;18.60;;;;;;;-141.97;71.03;47732.44;5015602;28;20552;-89
2022/11/27 04:18:46;;;;;;;36.07;18.57;;;;;;;-141.97;70.89;47669.00;5015114;28;20627;-90
2022/11/27 04:21:11;;;;;;;34.23;17.33;;;;;;;-141.97;70.43;47630.56;5014642;28;20147;-89
2022/11/27 04:23:37;;;;;;;39.43;17.80;;;;;;;-141.97;70.03;47672.84;4996854;28;20158;-89
2022/11/27 04:26:04;;;;;;;36.63;17.50;;;;;;;-141.97;69.75;47828.53;5014477;28;20162;-89
2022/11/27 04:28:29;;;;;;;36.13;17.57;;;;;;;-141.97;69.19;47628.63;5014104;28;20903;-89
2022/11/27 04:30:55;;;;;;;36.10;17.17;;;;;;;-141.97;69.21;47578.66;5014241;28;20460;-89
2022/11/27 04:33:21;;;;;;;37.97;17.30;;;;;;;-141.97;69.43;47619.03;5014248;28;20203;-89
2022/11/27 04:35:47;;;;;;;37.47;17.37;;;;;;;-141.97;69.71;47684.38;5013232;28;20622;-88
2022/11/27 04:38:13;;;;;;;35.73;16.37;;;;;;;-141.97;69.62;47626.72;5014103;28;20407;-88
2022/11/27 04:40:39;;;;;;;34.90;17.27;;;;;;;-141.97;70.02;47701.69;5014092;28;20161;-88
2022/11/27 04:43:04;;;;;;;37.80;17.87;;;;;;;-141.97;70.10;47726.66;5014284;28;20421;-88
2022/11/27 04:45:29;;;;;;;35.27;17.60;;;;;;;-141.97;70.13;47780.47;5014116;28;20190;-89
2022/11/27 04:47:55;;;;;;;35.20;16.67;;;;;;;-141.97;70.37;47670.91;5013881;28;20190;-89
2022/11/27 04:50:20;;;;;;;36.00;17.73;;;;;;;-141.97;70.96;47630.56;5013769;28;20608;-89
2022/11/27 04:52:46;;;;;;;32.70;16.80;;;;;;;-141.97;71.16;47661.31;5013888;28;20177;-89
2022/11/27 04:55:11;;;;;;;31.50;16.80;;;;;;;-141.97;71.13;47790.09;5014028;28;20155;-89
2022/11/27 04:57:37;;;;;;;36.63;16.50;;;;;;;-141.97;71.02;47755.50;5017520;28;20162;-87
2022/11/27 05:00:03;;;;;;;36.40;16.87;;;;;;;-141.97;71.09;47588.28;5022049;28;20226;-90
2022/11/27 05:02:29;;;;;;;32.43;15.80;;;;;;;-141.97;70.90;47676.69;5014247;28;20182;-88
2022/11/27 05:04:54;;;;;;;35.20;16.77;;;;;;;-141.97;70.89;47599.81;5014312;28;20409;-89
2022/11/27 05:07:20;;;;;;;36.37;17.03;;;;;;;-141.97;70.99;47663.22;5013486;28;20261;-89
2022/11/27 05:09:45;;;;;;;46.70;20.83;;;;;;;-141.97;70.90;47649.78;5013913;28;20221;-88
2022/11/27 05:12:10;;;;;;;36.63;18.27;;;;;;;-141.97;70.18;47682.47;5013681;28;20225;-88
2022/11/27 05:14:36;;;;;;;34.33;17.67;;;;;;;-141.97;69.20;47663.22;5015714;28;21089;-88
2022/11/27 05:17:01;;;;;;;38.97;20.33;;;;;;;-141.97;69.65;47636.31;5015089;28;20233;-88
2022/11/27 05:19:29;;;;;;;57.93;27.53;;;;;;;-141.97;69.97;47609.41;5013933;28;20196;-88
2022/11/27 05:21:55;;;;;;;48.13;22.30;;;;;;;-141.97;70.32;47684.38;5013617;28;20190;-89
2022/11/27 05:24:24;;;;;;;40.30;19.63;;;;;;;-141.97;70.31;47655.53;4995997;28;20449;-88
2022/11/27 05:26:49;;;;;;;33.10;17.43;;;;;;;-141.97;70.18;47561.38;4996034;28;21011;-88
2022/11/27 05:29:15;;;;;;;38.27;18.53;;;;;;;-141.97;70.97;47753.56;5013250;28;20405;-88
2022/11/27 05:31:41;;;;;;;40.30;20.77;;;;;;;-141.97;70.33;47751.66;4996922;28;20670;-88
2022/11/27 05:34:07;;;;;;;63.20;28.53;;;;;;;-141.97;69.75;47601.72;5013213;28;20485;-88
2022/11/27 05:36:33;;;;;;;42.77;22.03;;;;;;;-141.97;69.68;47705.53;5013095;28;20180;-88
2022/11/27 05:39:05;;;;;;;44.73;21.37;;;;;;;-141.97;70.44;47759.34;5013843;28;20167;-87
2022/11/27 05:41:30;;;;;;;43.83;22.20;;;;;;;-141.97;69.91;47642.09;5024786;28;20131;-87
2022/11/27 05:43:56;;;;;;;57.13;29.00;;;;;;;-141.97;71.03;47669.00;5035776;28;20429;-87
2022/11/27 05:46:22;;;;;;;71.10;34.03;;;;;;;-141.97;71.00;47699.75;5028670;28;20198;-89
2022/11/27 05:48:48;;;;;;;54.10;27.03;;;;;;;-141.97;70.79;47676.69;5014037;28;20169;-88
2022/11/27 05:51:14;;;;;;;49.47;25.17;;;;;;;-141.97;71.15;47722.81;5013644;28;20548;-88
2022/11/27 05:53:40;;;;;;;53.13;28.27;;;;;;;-141.97;70.41;47636.31;5014494;28;20181;-88
2022/11/27 05:56:11;;;;;;;64.13;31.53;;;;;;;-141.97;69.89;47711.28;4996531;28;20417;-89
2022/11/27 05:58:37;;;;;;;56.40;29.20;;;;;;;-141.97;69.31;47711.28;5013576;28;20178;-88
2022/11/27 06:01:03;;;;;;;54.33;27.43;;;;;;;-141.97;69.16;47695.91;4997735;28;20569;-88
2022/11/27 06:03:29;;;;;;;72.47;35.00;;;;;;;-141.97;69.33;47707.44;5010347;28;20476;-89
2022/11/27 06:05:55;;;;;;;98.07;44.50;;;;;;;-141.97;68.91;47707.44;5014659;28;20788;-91
2022/11/27 06:08:23;;;;;;;83.37;40.83;;;;;;;-141.97;68.32;47569.06;5031664;28;20414;-88
2022/11/27 06:10:48;;;;;;;80.10;36.53;;;;;;;-141.97;67.34;47717.06;5014450;28;20437;-89
2022/11/27 06:13:16;;;;;;;51.53;24.67;;;;;;;-141.97;68.36;47726.66;5030037;28;20431;-89
2022/11/27 06:15:41;;;;;;;52.87;24.23;;;;;;;-141.97;69.40;47757.41;5016800;28;20202;-89
2022/11/27 06:18:09;;;;;;;67.50;32.77;;;;;;;-141.97;69.12;47759.34;5016078;28;20424;-89
2022/11/27 06:20:37;;;;;;;209.63;99.53;;;;;;;-141.97;69.83;47780.47;5031552;28;20646;-89
2022/11/27 06:23:05;;;;;;;149.47;65.60;;;;;;;-141.97;69.17;47672.84;5030396;28;20402;-89
2022/11/27 06:25:31;;;;;;;108.83;41.17;;;;;;;-141.97;69.44;47747.81;4999687;28;20418;-90
2022/11/27 06:27:56;;;;;;;113.50;45.17;;;;;;;-141.97;69.00;47592.13;5024284;28;20418;-89
2022/11/27 06:30:24;;;;;;;57.20;26.47;;;;;;;-141.97;68.71;47699.75;5038736;28;20257;-88
2022/11/27 06:32:52;;;;;;;49.17;20.80;;;;;;;-141.97;68.69;47753.56;5034899;28;20221;-88
2022/11/27 06:35:18;;;;;;;80.30;35.80;;;;;;;-141.97;68.79;47692.06;5033572;28;20402;-89
2022/11/27 06:37:44;;;;;;;72.57;34.30;;;;;;;-141.97;69.49;47694.00;5001607;28;20178;-88
2022/11/27 06:40:10;;;;;;;94.47;45.33;;;;;;;-141.97;70.13;47672.84;4998371;28;20406;-90
2022/11/27 06:42:37;;;;;;;68.33;31.60;;;;;;;-141.97;70.44;47686.31;5012447;28;20906;-89
2022/11/27 06:45:03;;;;;;;83.83;42.97;;;;;;;-141.97;69.54;47663.22;5009596;28;20169;-91
2022/11/27 06:47:28;;;;;;;56.63;28.53;;;;;;;-141.97;70.16;47653.63;5025895;28;20417;-89
2022/11/27 06:49:57;;;;;;;44.70;21.40;;;;;;;-141.97;70.24;47690.16;5013028;28;20259;-89
2022/11/27 06:52:23;;;;;;;46.07;23.03;;;;;;;-141.97;70.46;47701.69;5032226;28;20191;-89
2022/11/27 06:54:50;;;;;;;54.73;27.80;;;;;;;-141.97;71.35;47649.78;5016014;28;20420;-89
2022/11/27 06:57:17;;;;;;;59.10;27.47;;;;;;;-141.97;70.90;47701.69;4998340;28;20405;-89
2022/11/27 06:59:42;;;;;;;93.87;41.30;;;;;;;-141.97;70.71;47653.63;5011310;28;20523;-90
2022/11/27 07:02:15;;;;;;;84.73;38.63;;;;;;;-141.97;70.64;47703.59;5013805;28;20401;-90
2022/11/27 07:04:40;;;;;;;77.43;35.33;;;;;;;-141.97;69.89;47584.44;5004611;28;20249;-88
2022/11/27 07:07:09;;;;;;;83.30;39.30;;;;;;;-141.97;68.91;47653.63;5008741;28;20418;-90
2022/11/27 07:09:34;;;;;;;88.40;38.33;;;;;;;-141.97;67.96;47699.75;5021246;28;20194;-90
2022/11/27 07:12:00;;;;;;;75.50;34.27;;;;;;;-141.97;68.09;47749.72;4999457;28;20465;-88
2022/11/27 07:14:26;;;;;;;70.57;30.30;;;;;;;-141.97;67.55;47595.97;5019042;28;20177;-89
2022/11/27 07:16:51;;;;;;;146.23;67.43;;;;;;;-141.97;68.38;47703.59;5018537;28;20177;-88
2022/11/27 07:19:17;;;;;;;80.90;37.13;;;;;;;-141.97;67.84;47770.88;5021974;28;20159;-89
2022/11/27 07:21:43;;;;;;;164.57;58.60;;;;;;;-141.97;66.74;47674.78;5005875;28;20254;-88
2022/11/27 07:24:08;;;;;;;147.23;58.33;;;;;;;-141.97;66.42;47649.78;5016893;28;20183;-89
2022/11/27 07:26:35;;;;;;;93.07;41.60;;;;;;;-141.97;65.77;47595.97;5011055;28;20198;-88
2022/11/27 07:29:01;;;;;;;46.30;23.47;;;;;;;-141.97;66.97;47722.81;5008164;28;20243;-91
2022/11/27 07:31:29;;;;;;;50.77;26.13;;;;;;;-141.97;67.07;47699.75;5026097;28;20451;-88
2022/11/27 07:33:55;;;;;;;42.27;22.07;;;;;;;-141.97;67.20;47732.44;5022242;28;20206;-87
2022/11/27 07:36:23;;;;;;;46.40;22.93;;;;;;;-141.97;67.07;47653.63;5022609;28;20940;-87
2022/11/27 07:38:50;;;;;;;41.40;21.43;;;;;;;-141.97;67.12;47799.72;5021455;28;20690;-90
2022/11/27 07:41:16;;;;;;;48.50;25.77;;;;;;;-141.97;66.83;47703.59;5017583;28;20497;-90
2022/11/27 07:43:44;;;;;;;46.23;23.80;;;;;;;-141.97;65.70;47663.22;5001856;28;20799;-91
2022/11/27 07:46:16;;;;;;;64.77;28.47;;;;;;;-141.97;65.09;47680.53;5027529;28;20508;-90
2022/11/27 07:48:42;;;;;;;52.90;27.23;;;;;;;-141.97;64.16;47684.38;5010026;28;20436;-91
2022/11/27 07:51:10;;;;;;;38.00;19.00;;;;;;;-141.97;62.82;47722.81;5012775;28;20457;-92
2022/11/27 07:53:37;;;;;;;34.10;17.03;;;;;;;-141.97;62.99;47711.28;5008036;28;20605;-92
2022/11/27 07:56:04;;;;;;;35.93;17.33;;;;;;;-141.97;62.36;47626.72;5002967;28;20406;-92
2022/11/27 07:58:30;;;;;;;35.43;17.30;;;;;;;-141.97;64.13;47611.34;5016829;28;20412;-88
2022/11/27 08:00:55;;;;;;;61.80;24.97;;;;;;;-141.97;63.89;47709.38;5033614;28;20422;-88
2022/11/27 08:03:21;;;;;;;48.97;23.77;;;;;;;-141.97;63.76;47715.13;5020750;28;20250;-87
2022/11/27 08:05:47;;;;;;;51.17;25.23;;;;;;;-141.97;62.50;47763.19;5022364;28;20226;-90
2022/11/27 08:08:12;;;;;;;81.60;36.07;;;;;;;-141.97;60.56;47742.03;5011737;28;20471;-90
2022/11/27 08:10:38;;;;;;;37.80;18.60;;;;;;;-141.97;61.60;47734.34;5000777;28;20286;-89
2022/11/27 08:13:05;;;;;;;47.47;22.73;;;;;;;-141.97;61.10;47711.28;4999516;28;20209;-91
2022/11/27 08:15:31;;;;;;;70.93;33.10;;;;;;;-141.97;61.82;47632.47;5017555;28;20167;-88
2022/11/27 08:17:56;;;;;;;112.13;49.77;;;;;;;-141.97;61.71;47703.59;5016318;28;20433;-89
2022/11/27 08:20:22;;;;;;;70.17;32.00;;;;;;;-141.97;60.66;47722.81;5017787;28;20179;-90
2022/11/27 08:22:48;;;;;;;67.47;32.27;;;;;;;-141.97;59.14;47772.78;5003446;28;20181;-87
2022/11/27 08:25:13;;;;;;;70.07;31.50;;;;;;;-141.97;58.10;47688.22;5025098;28;20406;-88
2022/11/27 08:27:39;;;;;;;41.33;20.97;;;;;;;-141.97;58.65;47634.41;5026625;28;20170;-88
2022/11/27 08:30:05;;;;;;;53.40;26.70;;;;;;;-141.97;59.43;47795.88;5010951;28;20557;-89
2022/11/27 08:32:31;;;;;;;41.43;19.33;;;;;;;-141.97;58.94;47669.00;5028473;28;20186;-89
2022/11/27 08:34:57;;;;;;;34.33;17.87;;;;;;;-141.97;59.39;47676.69;5010326;28;20478;-88
2022/11/27 08:37:23;;;;;;;31.30;16.80;;;;;;;-141.97;59.64;47688.22;5007830;28;20174;-88
2022/11/27 08:39:48;;;;;;;32.60;16.70;;;;;;;-141.97;58.67;47546.00;5010237;28;20216;-88
2022/11/27 08:42:14;;;;;;;31.00;17.30;;;;;;;-141.97;58.23;47753.56;5008233;28;20159;-88
2022/11/27 08:44:39;;;;;;;35.47;17.80;;;;;;;-141.97;57.95;47692.06;5025603;28;20174;-89
2022/11/27 08:47:05;;;;;;;30.37;16.47;;;;;;;-141.97;57.06;47742.03;5005259;28;20171;-87
2022/11/27 08:49:30;;;;;;;33.70;17.17;;;;;;;-141.97;57.49;47743.97;5021681;28;20189;-88
2022/11/27 08:51:56;;;;;;;31.33;15.90;;;;;;;-141.97;57.52;47599.81;5003310;28;20194;-89
2022/11/27 08:54:21;;;;;;;31.67;16.20;;;;;;;-141.97;57.80;47576.75;5016692;28;20171;-89
2022/11/27 08:56:47;;;;;;;41.60;21.10;;;;;;;-141.97;57.16;47572.91;5014458;28;20225;-89
2022/11/27 08:59:12;;;;;;;57.47;27.17;;;;;;;-141.97;55.38;47707.44;5015430;28;20193;-88
2022/11/27 09:01:38;;;;;;;59.00;25.43;;;;;;;-141.97;54.95;47655.53;5015483;28;20214;-88
2022/11/27 09:04:04;;;;;;;39.83;21.13;;;;;;;-141.97;55.20;47680.53;5018220;28;20226;-88
2022/11/27 09:06:33;;;;;;;47.60;24.80;;;;;;;-141.97;56.21;47707.44;5015521;28;20563;-88
2022/11/27 09:09:00;;;;;;;35.53;19.47;;;;;;;-141.97;54.99;47703.59;5017365;28;20163;-88
2022/11/27 09:11:27;;;;;;;44.73;22.53;;;;;;;-141.97;53.75;47684.38;5015480;28;20225;-88
2022/11/27 09:13:53;;;;;;;38.13;19.90;;;;;;;-141.97;53.38;47657.47;5016575;28;20191;-88
2022/11/27 09:16:20;;;;;;;42.77;20.30;;;;;;;-141.97;53.27;47703.59;5025156;28;20166;-86
2022/11/27 09:18:47;;;;;;;49.87;25.50;;;;;;;-141.97;51.92;47792.03;5033350;28;20169;-85
2022/11/27 09:21:14;;;;;;;34.17;17.73;;;;;;;-141.97;50.98;47626.72;5009142;28;20537;-86
2022/11/27 09:23:40;;;;;;;59.90;30.33;;;;;;;-141.97;50.13;47684.38;5012480;28;20171;-89
2022/11/27 09:26:11;;;;;;;73.33;35.60;;;;;;;-141.97;50.30;47695.91;5008150;28;20197;-88
2022/11/27 09:28:46;;;;;;;42.73;22.13;;;;;;;-141.97;50.38;47663.22;5012279;28;20171;-88
2022/11/27 09:31:13;;;;;;;32.30;17.17;;;;;;;-141.97;49.28;47761.25;5009296;28;20186;-89
2022/11/27 09:33:40;;;;;;;31.67;16.00;;;;;;;-141.97;49.28;47607.50;4992914;28;20167;-87
2022/11/27 09:36:09;;;;;;;34.37;18.27;;;;;;;-141.97;49.25;47572.91;5026699;28;20158;-88
2022/11/27 09:38:35;;;;;;;45.33;24.63;;;;;;;-141.97;48.65;47765.09;5014002;28;20170;-89
2022/11/27 09:41:10;;;;;;;47.93;25.83;;;;;;;-141.97;48.60;47705.53;5010083;28;20194;-86
2022/11/27 09:43:42;;;;;;;50.13;27.03;;;;;;;-141.97;48.24;47655.53;5000546;28;20612;-89
2022/11/27 09:46:16;;;;;;;46.00;25.13;;;;;;;-141.97;47.89;47597.88;4998417;28;20589;-91
2022/11/27 09:48:45;;;;;;;46.77;25.87;;;;;;;-141.97;47.67;47703.59;4996233;28;20178;-91
2022/11/27 09:51:30;;;;;;;55.23;29.13;;;;;;;-141.97;46.50;47705.53;5011272;28;20191;-88
2022/11/27 09:54:24;;;;;;;48.03;25.63;;;;;;;-141.97;45.87;47657.47;5006122;28;20155;-91
2022/11/27 09:56:52;;;;;;;44.13;25.17;;;;;;;-141.97;46.33;47555.59;4933965;28;20180;-92
2022/11/27 09:59:24;;;;;;;46.83;26.57;;;;;;;-141.97;46.36;47594.03;4943207;28;20200;-91
2022/11/27 10:01:50;;;;;;;60.73;30.63;;;;;;;-141.97;45.48;47738.19;4942830;28;20257;-91
2022/11/27 10:04:18;;;;;;;49.40;25.30;;;;;;;-141.97;45.07;47570.97;4925885;28;20232;-91
2022/11/27 10:06:56;;;;;;;31.90;18.37;;;;;;;-141.97;44.24;47720.91;4925125;29;20180;-91
2022/11/27 10:09:32;;;;;;;36.50;20.50;;;;;;;-141.97;44.65;47670.91;4924061;29;20212;-86
2022/11/27 10:12:31;;;;;;;39.03;19.87;;;;;;;-141.97;44.33;47711.28;4919589;29;20202;-91
2022/11/27 10:14:56;;;;;;;38.17;21.47;;;;;;;-141.97;44.43;47717.06;4935955;29;20733;-90
2022/11/27 10:17:30;;;;;;;36.37;20.30;;;;;;;-141.97;43.99;47595.97;4936230;29;20165;-91
2022/11/27 10:20:28;;;;;;;35.17;19.30;;;;;;;-141.97;43.62;47694.00;4919345;29;20222;-90
2022/11/27 10:23:46;;;;;;;36.67;19.63;;;;;;;-141.97;44.23;47561.38;4898060;29;20190;-90
2022/11/27 10:26:22;;;;;;;32.73;18.10;;;;;;;-141.97;43.34;47782.41;4787310;30;20638;-91
2022/11/27 10:29:24;;;;;;;32.63;19.27;;;;;;;-141.97;43.22;47715.13;4787464;30;20174;-92
2022/11/27 10:32:00;;;;;;;50.10;25.33;;;;;;;-141.97;43.55;47701.69;4772853;30;20221;-91
2022/11/27 10:34:43;;;;;;;36.40;19.97;;;;;;;-141.97;42.95;47697.84;4815647;29;20193;-91
2022/11/27 10:37:18;;;;;;;34.97;20.03;;;;;;;-141.97;42.57;47703.59;4823712;29;20690;-88
2022/11/27 10:39:52;;;;;;;32.63;18.33;;;;;;;-141.97;41.93;47680.53;4827461;29;20196;-91
2022/11/27 10:42:44;;;;;;;40.17;20.20;;;;;;;-141.97;41.74;47715.13;4831773;29;20184;-91
2022/11/27 10:45:34;;;;;;;38.30;20.10;;;;;;;-141.97;42.40;47642.09;4837379;29;20185;-90
2022/11/27 10:47:59;;;;;;;36.93;19.57;;;;;;;-141.97;42.87;47718.97;4837096;29;20197;-91
2022/11/27 10:50:28;;;;;;;36.20;19.23;;;;;;;-141.97;42.76;47674.78;4823049;29;20193;-90
2022/11/27 10:53:03;;;;;;;38.90;21.43;;;;;;;-141.97;43.21;47669.00;4839478;29;20203;-92
2022/11/27 10:55:52;;;;;;;39.23;22.23;;;;;;;-141.97;43.32;47715.13;4836726;29;20197;-90
2022/11/27 10:58:35;;;;;;;46.23;25.53;;;;;;;-141.97;42.69;47688.22;4838362;29;20185;-89
2022/11/27 11:01:07;;;;;;;45.77;25.10;;;;;;;-141.97;43.23;47688.22;4858282;29;20176;-92
2022/11/27 11:03:33;;;;;;;41.97;22.70;;;;;;;-141.97;42.60;47676.69;5003914;28;20244;-91
2022/11/27 11:06:13;;;;;;;36.40;20.50;;;;;;;-141.97;41.76;47657.47;5015739;28;20204;-91
2022/11/27 11:08:38;;;;;;;48.13;24.67;;;;;;;-141.97;41.70;47690.16;5015885;28;20174;-91
2022/11/27 11:11:06;;;;;;;26.60;15.03;;;;;;;-141.97;40.44;47544.06;5015103;28;20262;-91